sensor_id;sensor_type;location;lat;lon;timestamp;P1;durP1;ratioP1;P2;durP2;ratioP2
67562;SDS011;54392;53.556;49.214;2022-08-19T00:00:19;8.45;;;4.30;;
67562;SDS011;54392;53.556;49.214;2022-08-19T00:02:46;8.82;;;5.37;;
67562;SDS011;54392;53.556;49.214;2022-08-19T00:05:13;8.60;;;7.28;;
67562;SDS011;54392;53.556;49.214;2022-08-19T00:07:39;13.88;;;7.80;;
67562;SDS011;54392;53.556;49.214;2022-08-19T00:10:09;9.65;;;6.20;;
67562;SDS011;54392;53.556;49.214;2022-08-19T00:12:41;20.20;;;6.32;;
67562;SDS011;54392;53.556;49.214;2022-08-19T00:15:09;18.27;;;6.07;;
67562;SDS011;54392;53.556;49.214;2022-08-19T00:17:38;12.07;;;5.78;;
67562;SDS011;54392;53.556;49.214;2022-08-19T00:20:10;14.77;;;5.20;;
67562;SDS011;54392;53.556;49.214;2022-08-19T00:22:47;12.13;;;6.87;;
67562;SDS011;54392;53.556;49.214;2022-08-19T00:25:24;13.88;;;6.90;;
67562;SDS011;54392;53.556;49.214;2022-08-19T00:27:50;7.28;;;4.95;;
67562;SDS011;54392;53.556;49.214;2022-08-19T00:30:16;16.55;;;6.50;;
67562;SDS011;54392;53.556;49.214;2022-08-19T00:32:48;11.00;;;4.87;;
67562;SDS011;54392;53.556;49.214;2022-08-19T00:35:14;7.82;;;4.97;;
67562;SDS011;54392;53.556;49.214;2022-08-19T00:37:40;4.97;;;3.80;;
67562;SDS011;54392;53.556;49.214;2022-08-19T00:40:16;8.57;;;5.03;;
67562;SDS011;54392;53.556;49.214;2022-08-19T00:42:48;3.55;;;3.25;;
67562;SDS011;54392;53.556;49.214;2022-08-19T00:45:16;5.93;;;4.45;;
67562;SDS011;54392;53.556;49.214;2022-08-19T00:47:48;11.40;;;4.87;;
67562;SDS011;54392;53.556;49.214;2022-08-19T00:50:15;6.35;;;4.55;;
67562;SDS011;54392;53.556;49.214;2022-08-19T00:52:47;4.32;;;3.87;;
67562;SDS011;54392;53.556;49.214;2022-08-19T00:55:21;5.53;;;4.80;;
67562;SDS011;54392;53.556;49.214;2022-08-19T00:58:02;10.80;;;4.85;;
67562;SDS011;54392;53.556;49.214;2022-08-19T01:00:36;9.55;;;5.07;;
67562;SDS011;54392;53.556;49.214;2022-08-19T01:03:09;7.25;;;5.10;;
67562;SDS011;54392;53.556;49.214;2022-08-19T01:05:37;10.82;;;4.78;;
67562;SDS011;54392;53.556;49.214;2022-08-19T01:08:04;7.68;;;5.12;;
67562;SDS011;54392;53.556;49.214;2022-08-19T01:10:43;14.48;;;5.25;;
67562;SDS011;54392;53.556;49.214;2022-08-19T01:13:15;9.52;;;4.12;;
67562;SDS011;54392;53.556;49.214;2022-08-19T01:15:46;10.93;;;5.37;;
67562;SDS011;54392;53.556;49.214;2022-08-19T01:18:18;10.75;;;4.53;;
67562;SDS011;54392;53.556;49.214;2022-08-19T01:20:45;13.02;;;4.25;;
67562;SDS011;54392;53.556;49.214;2022-08-19T01:23:14;10.43;;;4.53;;
67562;SDS011;54392;53.556;49.214;2022-08-19T01:25:51;5.75;;;4.03;;
67562;SDS011;54392;53.556;49.214;2022-08-19T01:28:22;4.82;;;3.70;;
67562;SDS011;54392;53.556;49.214;2022-08-19T01:30:54;6.20;;;3.30;;
67562;SDS011;54392;53.556;49.214;2022-08-19T01:33:25;5.30;;;4.75;;
67562;SDS011;54392;53.556;49.214;2022-08-19T01:35:54;9.27;;;4.72;;
67562;SDS011;54392;53.556;49.214;2022-08-19T01:38:34;13.88;;;4.65;;
67562;SDS011;54392;53.556;49.214;2022-08-19T01:41:05;10.52;;;5.80;;
67562;SDS011;54392;53.556;49.214;2022-08-19T01:43:33;10.57;;;5.18;;
67562;SDS011;54392;53.556;49.214;2022-08-19T01:46:03;13.05;;;5.03;;
67562;SDS011;54392;53.556;49.214;2022-08-19T01:48:35;14.73;;;6.30;;
67562;SDS011;54392;53.556;49.214;2022-08-19T01:51:09;12.13;;;6.40;;
67562;SDS011;54392;53.556;49.214;2022-08-19T01:53:41;25.20;;;8.32;;
67562;SDS011;54392;53.556;49.214;2022-08-19T01:56:07;19.33;;;9.52;;
67562;SDS011;54392;53.556;49.214;2022-08-19T01:58:36;16.00;;;9.75;;
67562;SDS011;54392;53.556;49.214;2022-08-19T02:01:05;27.58;;;8.80;;
67562;SDS011;54392;53.556;49.214;2022-08-19T02:03:32;12.70;;;7.47;;
67562;SDS011;54392;53.556;49.214;2022-08-19T02:06:05;11.60;;;7.50;;
67562;SDS011;54392;53.556;49.214;2022-08-19T02:08:33;6.97;;;5.00;;
67562;SDS011;54392;53.556;49.214;2022-08-19T02:11:07;12.60;;;5.40;;
67562;SDS011;54392;53.556;49.214;2022-08-19T02:13:40;13.73;;;6.47;;
67562;SDS011;54392;53.556;49.214;2022-08-19T02:16:09;13.50;;;6.37;;
67562;SDS011;54392;53.556;49.214;2022-08-19T02:18:43;14.73;;;7.25;;
67562;SDS011;54392;53.556;49.214;2022-08-19T02:21:10;15.80;;;6.18;;
67562;SDS011;54392;53.556;49.214;2022-08-19T02:23:36;11.65;;;7.07;;
67562;SDS011;54392;53.556;49.214;2022-08-19T02:26:07;5.00;;;4.50;;
67562;SDS011;54392;53.556;49.214;2022-08-19T02:28:36;6.47;;;3.92;;
67562;SDS011;54392;53.556;49.214;2022-08-19T02:31:03;6.12;;;3.67;;
67562;SDS011;54392;53.556;49.214;2022-08-19T02:33:37;10.88;;;4.10;;
67562;SDS011;54392;53.556;49.214;2022-08-19T02:36:06;5.20;;;4.60;;
67562;SDS011;54392;53.556;49.214;2022-08-19T02:38:33;4.93;;;4.50;;
67562;SDS011;54392;53.556;49.214;2022-08-19T02:41:11;8.75;;;4.90;;
67562;SDS011;54392;53.556;49.214;2022-08-19T02:43:38;17.67;;;4.68;;
67562;SDS011;54392;53.556;49.214;2022-08-19T02:48:53;8.25;;;6.32;;
67562;SDS011;54392;53.556;49.214;2022-08-19T02:51:25;8.60;;;4.82;;
67562;SDS011;54392;53.556;49.214;2022-08-19T02:53:53;10.07;;;4.45;;
67562;SDS011;54392;53.556;49.214;2022-08-19T02:56:24;8.43;;;3.97;;
67562;SDS011;54392;53.556;49.214;2022-08-19T02:58:55;8.45;;;4.28;;
67562;SDS011;54392;53.556;49.214;2022-08-19T03:01:29;4.97;;;3.97;;
67562;SDS011;54392;53.556;49.214;2022-08-19T03:04:00;10.15;;;4.62;;
67562;SDS011;54392;53.556;49.214;2022-08-19T03:06:28;6.07;;;4.35;;
67562;SDS011;54392;53.556;49.214;2022-08-19T03:09:00;22.23;;;4.12;;
67562;SDS011;54392;53.556;49.214;2022-08-19T03:11:30;9.02;;;3.87;;
67562;SDS011;54392;53.556;49.214;2022-08-19T03:13:58;3.70;;;3.05;;
67562;SDS011;54392;53.556;49.214;2022-08-19T03:16:28;5.03;;;3.78;;
67562;SDS011;54392;53.556;49.214;2022-08-19T03:18:58;7.97;;;4.45;;
67562;SDS011;54392;53.556;49.214;2022-08-19T03:21:31;10.15;;;4.50;;
67562;SDS011;54392;53.556;49.214;2022-08-19T03:24:02;4.15;;;3.75;;
67562;SDS011;54392;53.556;49.214;2022-08-19T03:26:37;13.38;;;3.95;;
67562;SDS011;54392;53.556;49.214;2022-08-19T03:29:11;10.35;;;4.15;;
67562;SDS011;54392;53.556;49.214;2022-08-19T03:31:38;7.82;;;3.95;;
67562;SDS011;54392;53.556;49.214;2022-08-19T03:34:05;5.93;;;3.08;;
67562;SDS011;54392;53.556;49.214;2022-08-19T03:36:38;2.97;;;2.42;;
67562;SDS011;54392;53.556;49.214;2022-08-19T03:39:14;3.17;;;2.87;;
67562;SDS011;54392;53.556;49.214;2022-08-19T03:41:42;9.35;;;3.70;;
67562;SDS011;54392;53.556;49.214;2022-08-19T03:44:09;4.60;;;3.42;;
67562;SDS011;54392;53.556;49.214;2022-08-19T03:46:40;6.37;;;3.87;;
67562;SDS011;54392;53.556;49.214;2022-08-19T03:49:10;2.72;;;2.50;;
67562;SDS011;54392;53.556;49.214;2022-08-19T03:51:40;7.10;;;3.55;;
67562;SDS011;54392;53.556;49.214;2022-08-19T03:54:15;5.43;;;3.62;;
67562;SDS011;54392;53.556;49.214;2022-08-19T03:56:51;5.62;;;3.83;;
67562;SDS011;54392;53.556;49.214;2022-08-19T03:59:24;18.30;;;3.87;;
67562;SDS011;54392;53.556;49.214;2022-08-19T04:01:55;20.95;;;5.03;;
67562;SDS011;54392;53.556;49.214;2022-08-19T04:04:39;7.82;;;3.75;;
67562;SDS011;54392;53.556;49.214;2022-08-19T04:07:12;5.72;;;3.87;;
67562;SDS011;54392;53.556;49.214;2022-08-19T04:09:43;10.80;;;3.97;;
67562;SDS011;54392;53.556;49.214;2022-08-19T04:12:13;12.98;;;4.18;;
67562;SDS011;54392;53.556;49.214;2022-08-19T04:14:45;7.03;;;3.92;;
67562;SDS011;54392;53.556;49.214;2022-08-19T04:17:11;4.32;;;3.28;;
67562;SDS011;54392;53.556;49.214;2022-08-19T04:19:38;7.05;;;3.80;;
67562;SDS011;54392;53.556;49.214;2022-08-19T04:22:08;13.00;;;3.72;;
67562;SDS011;54392;53.556;49.214;2022-08-19T04:24:37;10.30;;;4.00;;
67562;SDS011;54392;53.556;49.214;2022-08-19T04:27:03;4.65;;;3.40;;
67562;SDS011;54392;53.556;49.214;2022-08-19T04:29:30;4.72;;;3.83;;
67562;SDS011;54392;53.556;49.214;2022-08-19T04:31:57;8.02;;;3.85;;
67562;SDS011;54392;53.556;49.214;2022-08-19T04:34:27;4.53;;;2.95;;
67562;SDS011;54392;53.556;49.214;2022-08-19T04:36:58;6.72;;;2.65;;
67562;SDS011;54392;53.556;49.214;2022-08-19T04:39:27;3.97;;;3.20;;
67562;SDS011;54392;53.556;49.214;2022-08-19T04:42:14;2.92;;;2.62;;
67562;SDS011;54392;53.556;49.214;2022-08-19T04:45:02;6.18;;;3.25;;
67562;SDS011;54392;53.556;49.214;2022-08-19T04:47:34;5.47;;;2.92;;
67562;SDS011;54392;53.556;49.214;2022-08-19T04:50:04;7.25;;;2.78;;
67562;SDS011;54392;53.556;49.214;2022-08-19T04:52:31;3.67;;;2.55;;
67562;SDS011;54392;53.556;49.214;2022-08-19T04:54:58;6.22;;;3.67;;
67562;SDS011;54392;53.556;49.214;2022-08-19T04:57:24;6.35;;;3.83;;
67562;SDS011;54392;53.556;49.214;2022-08-19T04:59:53;3.35;;;2.67;;
67562;SDS011;54392;53.556;49.214;2022-08-19T05:02:21;2.95;;;2.50;;
67562;SDS011;54392;53.556;49.214;2022-08-19T05:07:32;3.70;;;3.25;;
67562;SDS011;54392;53.556;49.214;2022-08-19T05:09:59;6.75;;;3.12;;
67562;SDS011;54392;53.556;49.214;2022-08-19T05:12:25;5.47;;;2.90;;
67562;SDS011;54392;53.556;49.214;2022-08-19T05:18:03;4.70;;;3.17;;
67562;SDS011;54392;53.556;49.214;2022-08-19T05:20:48;7.90;;;3.10;;
67562;SDS011;54392;53.556;49.214;2022-08-19T05:23:33;4.45;;;2.85;;
67562;SDS011;54392;53.556;49.214;2022-08-19T05:33:58;5.00;;;2.30;;
67562;SDS011;54392;53.556;49.214;2022-08-19T05:38:58;10.02;;;4.00;;
67562;SDS011;54392;53.556;49.214;2022-08-19T05:47:55;5.20;;;3.20;;
67562;SDS011;54392;53.556;49.214;2022-08-19T05:50:24;3.12;;;2.62;;
67562;SDS011;54392;53.556;49.214;2022-08-19T05:52:53;2.20;;;1.85;;
67562;SDS011;54392;53.556;49.214;2022-08-19T05:55:22;3.80;;;3.37;;
67562;SDS011;54392;53.556;49.214;2022-08-19T05:57:49;8.05;;;3.25;;
67562;SDS011;54392;53.556;49.214;2022-08-19T06:02:46;4.30;;;3.17;;
67562;SDS011;54392;53.556;49.214;2022-08-19T06:05:22;5.25;;;3.03;;
67562;SDS011;54392;53.556;49.214;2022-08-19T06:07:52;4.30;;;3.60;;
67562;SDS011;54392;53.556;49.214;2022-08-19T06:10:21;2.87;;;2.58;;
67562;SDS011;54392;53.556;49.214;2022-08-19T06:12:48;2.60;;;2.40;;
67562;SDS011;54392;53.556;49.214;2022-08-19T06:15:22;8.68;;;2.42;;
67562;SDS011;54392;53.556;49.214;2022-08-19T06:17:52;3.42;;;2.30;;
67562;SDS011;54392;53.556;49.214;2022-08-19T06:20:27;6.43;;;3.90;;
67562;SDS011;54392;53.556;49.214;2022-08-19T06:23:06;4.78;;;3.40;;
67562;SDS011;54392;53.556;49.214;2022-08-19T06:28:01;3.40;;;2.42;;
67562;SDS011;54392;53.556;49.214;2022-08-19T06:30:30;2.87;;;2.47;;
67562;SDS011;54392;53.556;49.214;2022-08-19T06:32:57;6.00;;;2.97;;
67562;SDS011;54392;53.556;49.214;2022-08-19T06:35:41;5.68;;;2.78;;
67562;SDS011;54392;53.556;49.214;2022-08-19T06:38:08;14.77;;;2.90;;
67562;SDS011;54392;53.556;49.214;2022-08-19T06:40:35;2.00;;;1.87;;
67562;SDS011;54392;53.556;49.214;2022-08-19T06:43:02;3.20;;;2.90;;
67562;SDS011;54392;53.556;49.214;2022-08-19T06:45:29;6.90;;;3.58;;
67562;SDS011;54392;53.556;49.214;2022-08-19T06:48:00;4.43;;;3.35;;
67562;SDS011;54392;53.556;49.214;2022-08-19T06:50:27;2.42;;;2.22;;
67562;SDS011;54392;53.556;49.214;2022-08-19T06:52:57;14.80;;;3.28;;
67562;SDS011;54392;53.556;49.214;2022-08-19T06:55:23;2.78;;;2.55;;
67562;SDS011;54392;53.556;49.214;2022-08-19T06:57:56;4.87;;;3.12;;
67562;SDS011;54392;53.556;49.214;2022-08-19T07:00:22;5.78;;;2.92;;
67562;SDS011;54392;53.556;49.214;2022-08-19T07:02:48;7.03;;;2.78;;
67562;SDS011;54392;53.556;49.214;2022-08-19T07:07:52;8.27;;;2.75;;
67562;SDS011;54392;53.556;49.214;2022-08-19T07:10:19;6.53;;;3.65;;
67562;SDS011;54392;53.556;49.214;2022-08-19T07:12:48;4.03;;;2.80;;
67562;SDS011;54392;53.556;49.214;2022-08-19T07:15:18;9.05;;;2.92;;
67562;SDS011;54392;53.556;49.214;2022-08-19T07:17:46;5.40;;;2.42;;
67562;SDS011;54392;53.556;49.214;2022-08-19T07:20:15;5.72;;;2.65;;
67562;SDS011;54392;53.556;49.214;2022-08-19T07:22:43;2.70;;;2.45;;
67562;SDS011;54392;53.556;49.214;2022-08-19T07:25:16;5.78;;;3.42;;
67562;SDS011;54392;53.556;49.214;2022-08-19T07:27:43;3.87;;;2.87;;
67562;SDS011;54392;53.556;49.214;2022-08-19T07:30:12;2.47;;;2.20;;
67562;SDS011;54392;53.556;49.214;2022-08-19T07:32:39;2.85;;;1.95;;
67562;SDS011;54392;53.556;49.214;2022-08-19T07:35:08;6.40;;;3.25;;
67562;SDS011;54392;53.556;49.214;2022-08-19T07:37:41;13.15;;;3.80;;
67562;SDS011;54392;53.556;49.214;2022-08-19T07:40:22;6.30;;;4.53;;
67562;SDS011;54392;53.556;49.214;2022-08-19T07:42:48;2.37;;;2.17;;
67562;SDS011;54392;53.556;49.214;2022-08-19T07:45:18;5.68;;;2.00;;
67562;SDS011;54392;53.556;49.214;2022-08-19T07:47:59;5.93;;;2.53;;
67562;SDS011;54392;53.556;49.214;2022-08-19T07:53:35;12.07;;;3.15;;
67562;SDS011;54392;53.556;49.214;2022-08-19T07:56:03;4.60;;;1.83;;
67562;SDS011;54392;53.556;49.214;2022-08-19T07:58:35;39.38;;;5.45;;
67562;SDS011;54392;53.556;49.214;2022-08-19T08:01:41;4.93;;;2.58;;
67562;SDS011;54392;53.556;49.214;2022-08-19T08:04:12;1.95;;;1.85;;
67562;SDS011;54392;53.556;49.214;2022-08-19T08:06:51;5.30;;;3.65;;
67562;SDS011;54392;53.556;49.214;2022-08-19T08:09:38;2.37;;;2.17;;
67562;SDS011;54392;53.556;49.214;2022-08-19T08:14:43;3.80;;;2.85;;
67562;SDS011;54392;53.556;49.214;2022-08-19T08:17:18;6.50;;;3.15;;
67562;SDS011;54392;53.556;49.214;2022-08-19T08:20:05;4.00;;;2.80;;
67562;SDS011;54392;53.556;49.214;2022-08-19T08:22:32;4.32;;;2.62;;
67562;SDS011;54392;53.556;49.214;2022-08-19T08:25:18;3.30;;;2.95;;
67562;SDS011;54392;53.556;49.214;2022-08-19T08:27:46;15.88;;;5.68;;
67562;SDS011;54392;53.556;49.214;2022-08-19T08:30:14;9.55;;;3.87;;
67562;SDS011;54392;53.556;49.214;2022-08-19T08:32:59;15.25;;;3.55;;
67562;SDS011;54392;53.556;49.214;2022-08-19T08:35:26;4.28;;;2.62;;
67562;SDS011;54392;53.556;49.214;2022-08-19T08:37:53;5.68;;;3.47;;
67562;SDS011;54392;53.556;49.214;2022-08-19T08:40:47;7.15;;;4.57;;
67562;SDS011;54392;53.556;49.214;2022-08-19T08:46:00;3.30;;;3.00;;
67562;SDS011;54392;53.556;49.214;2022-08-19T08:48:32;12.93;;;3.87;;
67562;SDS011;54392;53.556;49.214;2022-08-19T08:51:03;11.18;;;3.95;;
67562;SDS011;54392;53.556;49.214;2022-08-19T08:53:38;3.25;;;2.37;;
67562;SDS011;54392;53.556;49.214;2022-08-19T08:56:11;3.35;;;2.28;;
67562;SDS011;54392;53.556;49.214;2022-08-19T08:58:42;3.47;;;2.75;;
67562;SDS011;54392;53.556;49.214;2022-08-19T09:01:17;7.95;;;2.90;;
67562;SDS011;54392;53.556;49.214;2022-08-19T09:03:44;2.87;;;2.62;;
67562;SDS011;54392;53.556;49.214;2022-08-19T09:06:32;3.08;;;2.72;;
67562;SDS011;54392;53.556;49.214;2022-08-19T09:09:05;6.43;;;2.42;;
67562;SDS011;54392;53.556;49.214;2022-08-19T09:17:25;4.60;;;3.05;;
67562;SDS011;54392;53.556;49.214;2022-08-19T09:22:41;3.25;;;2.42;;
67562;SDS011;54392;53.556;49.214;2022-08-19T09:25:11;3.22;;;2.75;;
67562;SDS011;54392;53.556;49.214;2022-08-19T09:27:40;6.32;;;3.17;;
67562;SDS011;54392;53.556;49.214;2022-08-19T09:30:20;2.37;;;2.17;;
67562;SDS011;54392;53.556;49.214;2022-08-19T09:32:49;4.45;;;3.30;;
67562;SDS011;54392;53.556;49.214;2022-08-19T09:35:19;16.58;;;4.40;;
67562;SDS011;54392;53.556;49.214;2022-08-19T09:37:47;2.87;;;2.60;;
67562;SDS011;54392;53.556;49.214;2022-08-19T09:40:17;6.20;;;2.53;;
67562;SDS011;54392;53.556;49.214;2022-08-19T09:42:44;3.95;;;2.62;;
67562;SDS011;54392;53.556;49.214;2022-08-19T09:45:13;2.55;;;2.33;;
67562;SDS011;54392;53.556;49.214;2022-08-19T09:47:42;2.40;;;1.92;;
67562;SDS011;54392;53.556;49.214;2022-08-19T09:50:10;7.10;;;3.03;;
67562;SDS011;54392;53.556;49.214;2022-08-19T09:52:37;12.82;;;3.53;;
67562;SDS011;54392;53.556;49.214;2022-08-19T09:55:06;11.77;;;3.83;;
67562;SDS011;54392;53.556;49.214;2022-08-19T09:57:34;3.15;;;2.53;;
67562;SDS011;54392;53.556;49.214;2022-08-19T10:00:00;8.23;;;3.25;;
67562;SDS011;54392;53.556;49.214;2022-08-19T10:02:27;5.53;;;2.67;;
67562;SDS011;54392;53.556;49.214;2022-08-19T10:04:56;9.35;;;2.97;;
67562;SDS011;54392;53.556;49.214;2022-08-19T10:07:41;2.12;;;2.03;;
67562;SDS011;54392;53.556;49.214;2022-08-19T10:10:07;6.32;;;2.65;;
67562;SDS011;54392;53.556;49.214;2022-08-19T10:12:34;2.33;;;1.87;;
67562;SDS011;54392;53.556;49.214;2022-08-19T10:15:04;7.80;;;3.65;;
67562;SDS011;54392;53.556;49.214;2022-08-19T10:17:31;9.18;;;3.28;;
67562;SDS011;54392;53.556;49.214;2022-08-19T10:19:59;5.95;;;2.10;;
67562;SDS011;54392;53.556;49.214;2022-08-19T10:22:25;6.43;;;2.10;;
67562;SDS011;54392;53.556;49.214;2022-08-19T10:24:54;3.10;;;1.85;;
67562;SDS011;54392;53.556;49.214;2022-08-19T10:27:20;5.03;;;2.12;;
67562;SDS011;54392;53.556;49.214;2022-08-19T10:29:47;10.55;;;3.17;;
67562;SDS011;54392;53.556;49.214;2022-08-19T10:32:13;5.87;;;3.17;;
67562;SDS011;54392;53.556;49.214;2022-08-19T10:34:39;2.22;;;1.90;;
67562;SDS011;54392;53.556;49.214;2022-08-19T10:37:05;1.55;;;1.40;;
67562;SDS011;54392;53.556;49.214;2022-08-19T10:39:35;13.38;;;3.37;;
67562;SDS011;54392;53.556;49.214;2022-08-19T10:42:10;11.63;;;2.35;;
67562;SDS011;54392;53.556;49.214;2022-08-19T10:44:38;3.42;;;2.22;;
67562;SDS011;54392;53.556;49.214;2022-08-19T10:47:10;9.88;;;2.72;;
67562;SDS011;54392;53.556;49.214;2022-08-19T10:49:41;9.50;;;3.25;;
67562;SDS011;54392;53.556;49.214;2022-08-19T10:52:26;2.75;;;2.50;;
67562;SDS011;54392;53.556;49.214;2022-08-19T10:55:08;2.85;;;1.90;;
67562;SDS011;54392;53.556;49.214;2022-08-19T10:57:53;4.62;;;2.47;;
67562;SDS011;54392;53.556;49.214;2022-08-19T11:00:22;7.97;;;2.37;;
67562;SDS011;54392;53.556;49.214;2022-08-19T11:02:52;3.00;;;2.20;;
67562;SDS011;54392;53.556;49.214;2022-08-19T11:05:18;1.30;;;1.20;;
67562;SDS011;54392;53.556;49.214;2022-08-19T11:07:46;5.85;;;3.08;;
67562;SDS011;54392;53.556;49.214;2022-08-19T11:10:15;9.23;;;3.10;;
67562;SDS011;54392;53.556;49.214;2022-08-19T11:12:44;2.22;;;2.00;;
67562;SDS011;54392;53.556;49.214;2022-08-19T11:15:14;7.85;;;3.83;;
67562;SDS011;54392;53.556;49.214;2022-08-19T11:17:41;4.68;;;2.67;;
67562;SDS011;54392;53.556;49.214;2022-08-19T11:20:10;2.83;;;2.22;;
67562;SDS011;54392;53.556;49.214;2022-08-19T11:22:40;1.45;;;1.33;;
67562;SDS011;54392;53.556;49.214;2022-08-19T11:25:10;7.85;;;1.98;;
67562;SDS011;54392;53.556;49.214;2022-08-19T11:27:39;3.85;;;2.17;;
67562;SDS011;54392;53.556;49.214;2022-08-19T11:30:12;5.57;;;2.87;;
67562;SDS011;54392;53.556;49.214;2022-08-19T11:32:41;3.83;;;1.95;;
67562;SDS011;54392;53.556;49.214;2022-08-19T11:35:10;12.07;;;2.87;;
67562;SDS011;54392;53.556;49.214;2022-08-19T11:37:36;1.90;;;1.50;;
67562;SDS011;54392;53.556;49.214;2022-08-19T11:40:06;8.15;;;1.48;;
67562;SDS011;54392;53.556;49.214;2022-08-19T11:42:35;5.07;;;2.28;;
67562;SDS011;54392;53.556;49.214;2022-08-19T11:45:21;9.98;;;2.47;;
67562;SDS011;54392;53.556;49.214;2022-08-19T11:47:47;5.12;;;2.67;;
67562;SDS011;54392;53.556;49.214;2022-08-19T11:50:14;8.40;;;2.60;;
67562;SDS011;54392;53.556;49.214;2022-08-19T11:52:53;7.37;;;2.58;;
67562;SDS011;54392;53.556;49.214;2022-08-19T11:55:21;5.72;;;2.22;;
67562;SDS011;54392;53.556;49.214;2022-08-19T11:57:48;1.15;;;1.05;;
67562;SDS011;54392;53.556;49.214;2022-08-19T12:00:17;2.65;;;1.62;;
67562;SDS011;54392;53.556;49.214;2022-08-19T12:02:46;4.47;;;3.00;;
67562;SDS011;54392;53.556;49.214;2022-08-19T12:05:17;11.07;;;2.45;;
67562;SDS011;54392;53.556;49.214;2022-08-19T12:07:43;2.67;;;1.30;;
67562;SDS011;54392;53.556;49.214;2022-08-19T12:10:13;7.43;;;2.00;;
67562;SDS011;54392;53.556;49.214;2022-08-19T12:12:43;4.05;;;1.35;;
67562;SDS011;54392;53.556;49.214;2022-08-19T12:15:14;4.47;;;2.55;;
67562;SDS011;54392;53.556;49.214;2022-08-19T12:17:40;4.12;;;2.08;;
67562;SDS011;54392;53.556;49.214;2022-08-19T12:20:08;3.42;;;1.58;;
67562;SDS011;54392;53.556;49.214;2022-08-19T12:22:49;14.30;;;1.92;;
67562;SDS011;54392;53.556;49.214;2022-08-19T12:25:23;2.95;;;2.03;;
67562;SDS011;54392;53.556;49.214;2022-08-19T12:27:49;5.12;;;2.00;;
67562;SDS011;54392;53.556;49.214;2022-08-19T12:30:19;2.25;;;2.05;;
67562;SDS011;54392;53.556;49.214;2022-08-19T12:32:56;5.12;;;2.42;;
67562;SDS011;54392;53.556;49.214;2022-08-19T12:35:23;1.83;;;1.45;;
67562;SDS011;54392;53.556;49.214;2022-08-19T12:37:49;1.62;;;1.17;;
67562;SDS011;54392;53.556;49.214;2022-08-19T12:40:18;2.15;;;1.95;;
67562;SDS011;54392;53.556;49.214;2022-08-19T12:42:47;4.62;;;2.97;;
67562;SDS011;54392;53.556;49.214;2022-08-19T12:45:18;2.03;;;1.30;;
67562;SDS011;54392;53.556;49.214;2022-08-19T12:47:49;3.17;;;1.83;;
67562;SDS011;54392;53.556;49.214;2022-08-19T12:50:15;6.72;;;1.55;;
67562;SDS011;54392;53.556;49.214;2022-08-19T12:52:52;1.45;;;1.35;;
67562;SDS011;54392;53.556;49.214;2022-08-19T12:55:21;7.07;;;2.05;;
67562;SDS011;54392;53.556;49.214;2022-08-19T12:57:48;2.05;;;1.58;;
67562;SDS011;54392;53.556;49.214;2022-08-19T13:00:18;4.00;;;1.37;;
67562;SDS011;54392;53.556;49.214;2022-08-19T13:02:47;2.40;;;1.40;;
67562;SDS011;54392;53.556;49.214;2022-08-19T13:05:16;2.80;;;1.55;;
67562;SDS011;54392;53.556;49.214;2022-08-19T13:07:48;7.60;;;2.55;;
67562;SDS011;54392;53.556;49.214;2022-08-19T13:10:16;5.43;;;1.62;;
67562;SDS011;54392;53.556;49.214;2022-08-19T13:12:45;4.15;;;2.53;;
67562;SDS011;54392;53.556;49.214;2022-08-19T13:15:16;2.33;;;1.37;;
67562;SDS011;54392;53.556;49.214;2022-08-19T13:17:49;2.10;;;1.67;;
67562;SDS011;54392;53.556;49.214;2022-08-19T13:20:19;1.15;;;1.05;;
67562;SDS011;54392;53.556;49.214;2022-08-19T13:22:53;4.75;;;1.73;;
67562;SDS011;54392;53.556;49.214;2022-08-19T13:25:23;2.97;;;1.90;;
67562;SDS011;54392;53.556;49.214;2022-08-19T13:27:54;5.40;;;1.60;;
67562;SDS011;54392;53.556;49.214;2022-08-19T13:30:21;16.95;;;1.60;;
67562;SDS011;54392;53.556;49.214;2022-08-19T13:33:09;2.92;;;1.73;;
67562;SDS011;54392;53.556;49.214;2022-08-19T13:35:44;1.73;;;1.62;;
67562;SDS011;54392;53.556;49.214;2022-08-19T13:38:12;5.03;;;2.35;;
67562;SDS011;54392;53.556;49.214;2022-08-19T13:40:44;4.47;;;1.92;;
67562;SDS011;54392;53.556;49.214;2022-08-19T13:43:11;1.23;;;1.20;;
67562;SDS011;54392;53.556;49.214;2022-08-19T13:45:39;1.62;;;1.52;;
67562;SDS011;54392;53.556;49.214;2022-08-19T13:48:08;5.75;;;2.70;;
67562;SDS011;54392;53.556;49.214;2022-08-19T13:50:40;7.60;;;2.62;;
67562;SDS011;54392;53.556;49.214;2022-08-19T13:55:34;3.75;;;2.05;;
67562;SDS011;54392;53.556;49.214;2022-08-19T13:58:03;4.80;;;1.67;;
67562;SDS011;54392;53.556;49.214;2022-08-19T14:00:32;5.40;;;1.40;;
67562;SDS011;54392;53.556;49.214;2022-08-19T14:05:29;1.87;;;1.70;;
67562;SDS011;54392;53.556;49.214;2022-08-19T14:07:59;2.47;;;1.80;;
67562;SDS011;54392;53.556;49.214;2022-08-19T14:10:28;1.35;;;1.20;;
67562;SDS011;54392;53.556;49.214;2022-08-19T14:12:57;1.73;;;1.42;;
67562;SDS011;54392;53.556;49.214;2022-08-19T14:15:25;5.80;;;0.98;;
67562;SDS011;54392;53.556;49.214;2022-08-19T14:17:55;4.12;;;1.33;;
67562;SDS011;54392;53.556;49.214;2022-08-19T14:20:21;8.23;;;1.58;;
67562;SDS011;54392;53.556;49.214;2022-08-19T14:22:50;2.83;;;1.83;;
67562;SDS011;54392;53.556;49.214;2022-08-19T14:25:20;7.43;;;1.45;;
67562;SDS011;54392;53.556;49.214;2022-08-19T14:27:48;6.43;;;1.33;;
67562;SDS011;54392;53.556;49.214;2022-08-19T14:30:19;1.65;;;1.23;;
67562;SDS011;54392;53.556;49.214;2022-08-19T14:32:52;1.10;;;1.00;;
67562;SDS011;54392;53.556;49.214;2022-08-19T14:35:20;2.97;;;1.42;;
67562;SDS011;54392;53.556;49.214;2022-08-19T14:37:48;1.35;;;1.25;;
67562;SDS011;54392;53.556;49.214;2022-08-19T14:40:16;2.33;;;1.55;;
67562;SDS011;54392;53.556;49.214;2022-08-19T14:42:54;2.97;;;1.60;;
67562;SDS011;54392;53.556;49.214;2022-08-19T14:45:27;2.00;;;1.30;;
67562;SDS011;54392;53.556;49.214;2022-08-19T14:47:56;3.30;;;1.90;;
67562;SDS011;54392;53.556;49.214;2022-08-19T14:50:25;1.92;;;1.50;;
67562;SDS011;54392;53.556;49.214;2022-08-19T14:52:57;1.10;;;1.00;;
67562;SDS011;54392;53.556;49.214;2022-08-19T14:55:25;5.70;;;2.28;;
67562;SDS011;54392;53.556;49.214;2022-08-19T14:57:51;1.62;;;1.00;;
67562;SDS011;54392;53.556;49.214;2022-08-19T15:00:17;1.62;;;1.52;;
67562;SDS011;54392;53.556;49.214;2022-08-19T15:02:46;2.17;;;1.98;;
67562;SDS011;54392;53.556;49.214;2022-08-19T15:05:17;1.85;;;1.73;;
67562;SDS011;54392;53.556;49.214;2022-08-19T15:07:44;1.65;;;1.37;;
67562;SDS011;54392;53.556;49.214;2022-08-19T15:10:14;1.40;;;1.30;;
67562;SDS011;54392;53.556;49.214;2022-08-19T15:12:43;1.60;;;0.80;;
67562;SDS011;54392;53.556;49.214;2022-08-19T15:15:13;1.42;;;1.25;;
67562;SDS011;54392;53.556;49.214;2022-08-19T15:17:40;8.77;;;1.87;;
67562;SDS011;54392;53.556;49.214;2022-08-19T15:20:07;1.23;;;1.10;;
67562;SDS011;54392;53.556;49.214;2022-08-19T15:22:34;4.90;;;2.25;;
67562;SDS011;54392;53.556;49.214;2022-08-19T15:25:03;1.73;;;1.17;;
67562;SDS011;54392;53.556;49.214;2022-08-19T15:27:30;1.25;;;1.05;;
67562;SDS011;54392;53.556;49.214;2022-08-19T15:29:57;3.22;;;2.22;;
67562;SDS011;54392;53.556;49.214;2022-08-19T15:32:24;1.55;;;1.45;;
67562;SDS011;54392;53.556;49.214;2022-08-19T15:34:53;4.00;;;2.42;;
67562;SDS011;54392;53.556;49.214;2022-08-19T15:37:22;4.18;;;1.27;;
67562;SDS011;54392;53.556;49.214;2022-08-19T15:39:51;5.62;;;1.67;;
67562;SDS011;54392;53.556;49.214;2022-08-19T15:42:20;3.15;;;1.92;;
67562;SDS011;54392;53.556;49.214;2022-08-19T15:44:46;2.03;;;1.37;;